Time;durP1;ratioP1;P1;durP2;ratioP2;P2;SDS_P1;SDS_P2;PMS_P1;PMS_P2;Temp;Humidity;BMP_temperature;BMP_pressure;BME280_temperature;BME280_humidity;BME280_pressure;Samples;Min_cycle;Max_cycle;Signal;HPM_P1;HPM_P2
2022/03/14 00:01:39;;;;;;;0.00;0.00;;;10.60;73.60;;;;;;5073382;28;20036;-78
2022/03/14 00:04:04;;;;;;;0.00;0.00;;;10.70;72.80;;;;;;5073332;28;20041;-78
2022/03/14 00:06:30;;;;;;;0.10;0.10;;;10.60;73.30;;;;;;5072961;28;20041;-78
2022/03/14 00:08:57;;;;;;;0.00;0.00;;;10.60;74.10;;;;;;5073362;28;20048;-78
2022/03/14 00:11:26;;;;;;;0.00;0.00;;;10.60;73.00;;;;;;5073739;28;20063;-78
2022/03/14 00:13:54;;;;;;;0.08;0.00;;;10.60;75.00;;;;;;5072532;28;20057;-78
2022/03/14 00:16:23;;;;;;;0.00;0.00;;;10.60;76.10;;;;;;5073419;28;20040;-78
2022/03/14 00:18:53;;;;;;;0.50;0.25;;;10.60;75.40;;;;;;5073145;28;20076;-78
2022/03/14 00:21:22;;;;;;;0.00;0.00;;;10.60;75.60;;;;;;5073682;28;20131;-79
2022/03/14 00:23:49;;;;;;;0.00;0.00;;;10.70;74.70;;;;;;5072578;28;20562;-79
2022/03/14 00:26:15;;;;;;;0.00;0.00;;;10.70;76.40;;;;;;5056434;28;20148;-79
2022/03/14 00:28:42;;;;;;;0.00;0.00;;;10.70;76.20;;;;;;5056083;28;20056;-78
2022/03/14 00:31:08;;;;;;;0.00;0.00;;;10.80;76.60;;;;;;5056348;28;20052;-78
2022/03/14 00:33:35;;;;;;;0.00;0.00;;;10.70;76.40;;;;;;5072848;28;20033;-78
2022/03/14 00:36:01;;;;;;;0.00;0.00;;;10.80;75.30;;;;;;5072614;28;20060;-79
2022/03/14 00:38:26;;;;;;;0.00;0.00;;;10.80;76.40;;;;;;5056404;28;20036;-79
2022/03/14 00:40:52;;;;;;;1.85;0.00;;;10.80;75.80;;;;;;5056370;28;20545;-79
2022/03/14 00:43:18;;;;;;;2.75;0.50;;;10.90;76.40;;;;;;5072867;28;20049;-79
2022/03/14 00:45:44;;;;;;;0.00;0.00;;;10.90;76.00;;;;;;5072736;28;20066;-79
2022/03/14 00:48:10;;;;;;;0.00;0.00;;;10.90;74.80;;;;;;5055581;28;20571;-79
2022/03/14 00:50:36;;;;;;;0.00;0.00;;;10.90;75.50;;;;;;5072698;28;20079;-78
2022/03/14 00:53:02;;;;;;;0.00;0.00;;;10.90;77.20;;;;;;5055815;28;20061;-79
2022/03/14 00:55:28;;;;;;;0.10;0.10;;;10.90;76.60;;;;;;5055455;28;20048;-78
2022/03/14 00:57:53;;;;;;;0.00;0.00;;;10.90;77.40;;;;;;5072543;28;20044;-79
2022/03/14 01:00:19;;;;;;;0.00;0.00;;;10.90;77.60;;;;;;5072547;28;20131;-80
2022/03/14 01:02:48;;;;;;;0.00;0.00;;;10.90;77.40;;;;;;5072135;28;20048;-78
2022/03/14 01:05:14;;;;;;;0.00;0.00;;;10.90;76.90;;;;;;5072794;28;20044;-78
2022/03/14 01:07:40;;;;;;;0.10;0.10;;;10.90;77.20;;;;;;5055938;28;20083;-78
2022/03/14 01:10:06;;;;;;;0.10;0.10;;;10.80;77.50;;;;;;5072845;28;20087;-78
2022/03/14 01:12:32;;;;;;;0.13;0.00;;;10.80;77.10;;;;;;5071881;28;20103;-79
2022/03/14 01:14:58;;;;;;;0.00;0.00;;;10.80;77.70;;;;;;5072471;28;20055;-79
2022/03/14 01:17:24;;;;;;;0.00;0.00;;;10.80;77.20;;;;;;5072434;28;20123;-79
2022/03/14 01:19:50;;;;;;;0.05;0.03;;;10.80;77.30;;;;;;5072624;28;20524;-79
2022/03/14 01:22:15;;;;;;;0.10;0.00;;;10.80;77.80;;;;;;5072183;28;20090;-79
2022/03/14 01:24:43;;;;;;;0.00;0.00;;;10.80;78.20;;;;;;5072397;28;20052;-78
2022/03/14 01:27:09;;;;;;;0.00;0.00;;;10.80;78.30;;;;;;5055460;28;20048;-78
2022/03/14 01:29:35;;;;;;;0.00;0.00;;;10.80;78.80;;;;;;5072192;28;20052;-79
2022/03/14 01:32:06;;;;;;;0.00;0.00;;;10.80;78.70;;;;;;5059040;28;20108;-79
2022/03/14 01:34:32;;;;;;;0.15;0.15;;;10.80;79.10;;;;;;5076549;28;20051;-79
2022/03/14 01:36:58;;;;;;;0.00;0.00;;;10.80;78.10;;;;;;5059338;28;20044;-79
2022/03/14 01:39:25;;;;;;;0.00;0.00;;;10.80;78.70;;;;;;5076206;28;20135;-79
2022/03/14 01:41:51;;;;;;;0.00;0.00;;;10.80;78.80;;;;;;5075986;28;20033;-78
2022/03/14 01:44:17;;;;;;;0.10;0.10;;;10.70;78.50;;;;;;5076070;28;20072;-78
2022/03/14 01:46:43;;;;;;;0.00;0.00;;;10.70;78.90;;;;;;5059428;28;20048;-78
2022/03/14 01:49:11;;;;;;;0.00;0.00;;;10.80;78.20;;;;;;5075564;28;20515;-78
2022/03/14 01:51:39;;;;;;;0.00;0.00;;;10.70;79.20;;;;;;5075911;28;20052;-78
2022/03/14 01:54:05;;;;;;;0.00;0.00;;;10.70;79.50;;;;;;5075900;28;20086;-78
2022/03/14 01:56:31;;;;;;;0.00;0.00;;;10.60;79.20;;;;;;5075632;28;20102;-79
2022/03/14 01:58:58;;;;;;;0.00;0.00;;;10.60;79.40;;;;;;5059115;28;20350;-78
2022/03/14 02:01:23;;;;;;;0.00;0.00;;;10.60;80.00;;;;;;5075650;28;20473;-78
2022/03/14 02:03:52;;;;;;;0.00;0.00;;;10.60;79.90;;;;;;5076290;28;20098;-78
2022/03/14 02:06:18;;;;;;;0.10;0.10;;;10.50;80.30;;;;;;5076142;28;20040;-78
2022/03/14 02:08:44;;;;;;;0.00;0.00;;;10.50;79.50;;;;;;5075301;28;20044;-78
2022/03/14 02:11:10;;;;;;;0.00;0.00;;;10.50;80.60;;;;;;5075789;28;20392;-79
2022/03/14 02:13:36;;;;;;;0.20;0.05;;;10.50;80.40;;;;;;5074976;28;20057;-78
2022/03/14 02:16:02;;;;;;;0.00;0.00;;;10.50;80.80;;;;;;5075141;28;20055;-78
2022/03/14 02:18:27;;;;;;;0.00;0.00;;;10.60;80.80;;;;;;5075463;28;20040;-78
2022/03/14 02:20:53;;;;;;;0.00;0.00;;;10.60;80.40;;;;;;5075224;28;20215;-78
2022/03/14 02:23:19;;;;;;;0.10;0.10;;;10.60;80.30;;;;;;5058685;28;20055;-78
2022/03/14 02:25:50;;;;;;;0.00;0.00;;;10.60;80.50;;;;;;5075119;28;20044;-78
2022/03/14 02:28:22;;;;;;;0.00;0.00;;;10.60;80.90;;;;;;5058490;28;20472;-78
2022/03/14 02:30:49;;;;;;;0.00;0.00;;;10.50;80.60;;;;;;5075898;28;20111;-78
2022/03/14 02:33:15;;;;;;;0.00;0.00;;;10.60;81.00;;;;;;5058441;28;20491;-78
2022/03/14 02:35:41;;;;;;;0.00;0.00;;;10.60;81.00;;;;;;5075169;28;20162;-78
2022/03/14 02:38:12;;;;;;;0.00;0.00;;;10.60;82.10;;;;;;5058686;28;20052;-78
2022/03/14 02:40:41;;;;;;;0.00;0.00;;;10.60;81.70;;;;;;5058563;28;20439;-79
2022/03/14 02:43:07;;;;;;;0.00;0.00;;;10.70;81.40;;;;;;5073385;28;20041;-78
2022/03/14 02:45:33;;;;;;;0.00;0.00;;;10.70;81.50;;;;;;5075560;28;20040;-78
2022/03/14 02:47:59;;;;;;;0.10;0.10;;;10.80;82.00;;;;;;5074631;28;20098;-79
2022/03/14 02:50:26;;;;;;;0.32;0.13;;;10.80;80.50;;;;;;5058269;28;20045;-78
2022/03/14 02:52:52;;;;;;;0.00;0.00;;;10.80;81.20;;;;;;5074789;28;20056;-79
2022/03/14 02:55:21;;;;;;;0.00;0.00;;;10.80;81.70;;;;;;5057821;28;20041;-79
2022/03/14 02:57:47;;;;;;;0.10;0.10;;;10.80;81.80;;;;;;5058163;28;20044;-79
2022/03/14 03:00:13;;;;;;;0.00;0.00;;;10.90;81.60;;;;;;5057620;28;20060;-79
2022/03/14 03:02:40;;;;;;;0.00;0.00;;;10.90;82.30;;;;;;5058089;28;20036;-78
2022/03/14 03:05:06;;;;;;;0.00;0.00;;;10.80;81.80;;;;;;5074566;28;20044;-79
2022/03/14 03:07:32;;;;;;;0.00;0.00;;;10.90;82.30;;;;;;5057492;28;20143;-79
2022/03/14 03:09:58;;;;;;;0.15;0.00;;;10.90;82.00;;;;;;5074481;28;20053;-79
2022/03/14 03:12:28;;;;;;;0.00;0.00;;;10.90;81.80;;;;;;5074297;28;20040;-78
2022/03/14 03:14:54;;;;;;;0.00;0.00;;;10.90;81.90;;;;;;5058185;28;20373;-79
2022/03/14 03:17:20;;;;;;;0.00;0.00;;;10.90;81.90;;;;;;5073375;28;20059;-79
2022/03/14 03:19:46;;;;;;;0.00;0.00;;;10.80;82.20;;;;;;5057492;28;20058;-78
2022/03/14 03:22:12;;;;;;;0.00;0.00;;;10.80;82.00;;;;;;5074265;28;20123;-78
2022/03/14 03:24:37;;;;;;;0.00;0.00;;;10.80;81.90;;;;;;5074675;28;20440;-78
2022/03/14 03:27:03;;;;;;;0.00;0.00;;;10.80;81.80;;;;;;5057646;28;20052;-78
2022/03/14 03:29:29;;;;;;;0.00;0.00;;;10.80;81.90;;;;;;5074268;28;20111;-78
2022/03/14 03:31:55;;;;;;;0.00;0.00;;;10.80;83.40;;;;;;5057415;28;20048;-78
2022/03/14 03:34:20;;;;;;;0.05;0.00;;;10.80;81.70;;;;;;5074180;28;20036;-78
2022/03/14 03:36:46;;;;;;;0.10;0.10;;;10.80;83.30;;;;;;5073642;28;20468;-78
2022/03/14 03:39:12;;;;;;;0.00;0.00;;;10.70;82.20;;;;;;5073959;28;20051;-78
2022/03/14 03:41:38;;;;;;;0.00;0.00;;;10.70;83.00;;;;;;5056849;28;20062;-79
2022/03/14 03:44:04;;;;;;;0.57;0.00;;;10.70;82.80;;;;;;5073669;28;20048;-78
2022/03/14 03:46:30;;;;;;;0.00;0.00;;;10.70;82.90;;;;;;5073666;28;20131;-79
2022/03/14 03:48:56;;;;;;;0.10;0.00;;;10.70;82.80;;;;;;5073823;28;20127;-79
2022/03/14 03:51:22;;;;;;;0.00;0.00;;;10.60;83.10;;;;;;5073648;28;20066;-78
2022/03/14 03:53:47;;;;;;;0.00;0.00;;;10.60;83.20;;;;;;5073050;28;20102;-78
2022/03/14 03:56:13;;;;;;;0.00;0.00;;;10.60;82.90;;;;;;5073607;28;20562;-79
2022/03/14 03:58:38;;;;;;;0.00;0.00;;;10.60;83.40;;;;;;5073590;28;20041;-79
2022/03/14 04:01:05;;;;;;;0.00;0.00;;;10.60;83.60;;;;;;5073437;28;20365;-79
2022/03/14 04:03:30;;;;;;;0.00;0.00;;;10.60;83.60;;;;;;5073443;28;20056;-79
2022/03/14 04:05:56;;;;;;;0.00;0.00;;;10.60;84.40;;;;;;5056680;28;20052;-79
2022/03/14 04:08:22;;;;;;;0.10;0.00;;;10.60;84.00;;;;;;5073020;28;20093;-79
2022/03/14 04:10:53;;;;;;;0.00;0.00;;;10.50;83.70;;;;;;5073378;28;20476;-79
2022/03/14 04:13:20;;;;;;;0.00;0.00;;;10.50;83.80;;;;;;5056700;28;20460;-79
2022/03/14 04:15:52;;;;;;;0.00;0.00;;;10.50;84.80;;;;;;5056586;28;20056;-79
2022/03/14 04:18:25;;;;;;;0.00;0.00;;;10.50;84.90;;;;;;5073326;28;20400;-79
2022/03/14 04:20:51;;;;;;;0.00;0.00;;;10.50;85.10;;;;;;5056451;28;20063;-79
2022/03/14 04:23:18;;;;;;;0.00;0.00;;;10.50;84.90;;;;;;5072822;28;20032;-79
2022/03/14 04:25:45;;;;;;;0.00;0.00;;;10.50;85.70;;;;;;5073442;28;20518;-79
2022/03/14 04:28:15;;;;;;;0.00;0.00;;;10.60;85.70;;;;;;5073424;28;20381;-79
2022/03/14 04:30:41;;;;;;;0.00;0.00;;;10.50;85.60;;;;;;5072542;28;20053;-79
2022/03/14 04:33:08;;;;;;;0.00;0.00;;;10.50;84.80;;;;;;5072910;28;20399;-79
2022/03/14 04:35:35;;;;;;;0.00;0.00;;;10.50;85.10;;;;;;5056243;28;20106;-79
2022/03/14 04:38:02;;;;;;;0.00;0.00;;;10.50;85.90;;;;;;5073479;28;20096;-79
2022/03/14 04:40:28;;;;;;;0.00;0.00;;;10.60;85.10;;;;;;5056730;28;20079;-79
2022/03/14 04:42:54;;;;;;;0.57;0.00;;;10.50;85.50;;;;;;5072906;28;20036;-79
2022/03/14 04:45:20;;;;;;;0.00;0.00;;;10.50;85.00;;;;;;5056065;28;20057;-79
2022/03/14 04:47:45;;;;;;;0.00;0.00;;;10.50;85.20;;;;;;5072665;28;20102;-79
2022/03/14 04:50:11;;;;;;;0.00;0.00;;;10.50;86.00;;;;;;5056293;28;20040;-79
2022/03/14 04:52:37;;;;;;;0.00;0.00;;;10.50;85.70;;;;;;5056331;28;20206;-79
2022/03/14 04:55:03;;;;;;;0.30;0.30;;;10.50;86.70;;;;;;5072634;28;20551;-79
2022/03/14 04:57:29;;;;;;;0.00;0.00;;;10.50;86.70;;;;;;5072766;28;20048;-79
2022/03/14 04:59:54;;;;;;;0.00;0.00;;;10.50;86.80;;;;;;5072640;28;20431;-79
2022/03/14 05:02:22;;;;;;;0.00;0.00;;;10.50;87.10;;;;;;5055495;28;20131;-79
2022/03/14 05:04:49;;;;;;;0.10;0.10;;;10.50;87.90;;;;;;5072049;28;20124;-79
2022/03/14 05:07:14;;;;;;;0.00;0.00;;;10.50;87.50;;;;;;5072256;28;20087;-79
2022/03/14 05:09:40;;;;;;;0.00;0.00;;;10.50;88.90;;;;;;5072949;28;20102;-80
2022/03/14 05:12:07;;;;;;;0.70;0.70;;;10.40;87.30;;;;;;5055996;28;20122;-79
2022/03/14 05:14:34;;;;;;;0.05;0.05;;;10.50;88.70;;;;;;5071977;28;20473;-79
2022/03/14 05:17:00;;;;;;;0.00;0.00;;;10.40;89.80;;;;;;5072490;28;20044;-79
2022/03/14 05:19:25;;;;;;;0.00;0.00;;;10.40;90.20;;;;;;5072733;28;20139;-79
2022/03/14 05:21:51;;;;;;;0.00;0.00;;;10.40;90.40;;;;;;5072384;28;20475;-79
2022/03/14 05:24:17;;;;;;;0.00;0.00;;;10.30;90.80;;;;;;5072442;28;20524;-79
2022/03/14 05:26:43;;;;;;;0.10;0.10;;;10.40;90.80;;;;;;5055549;28;20048;-79
2022/03/14 05:29:12;;;;;;;0.00;0.00;;;10.20;91.70;;;;;;5072240;28;20040;-79
2022/03/14 05:31:38;;;;;;;0.20;0.10;;;10.20;92.10;;;;;;5055252;28;20084;-79
2022/03/14 05:34:04;;;;;;;0.30;0.00;;;10.20;92.00;;;;;;5072284;28;20083;-79
2022/03/14 05:36:29;;;;;;;0.00;0.00;;;10.10;93.30;;;;;;5071999;28;20050;-79
2022/03/14 05:38:55;;;;;;;0.10;0.10;;;10.10;93.20;;;;;;5055580;28;20091;-79
2022/03/14 05:41:21;;;;;;;1.00;0.35;;;10.10;93.00;;;;;;5055759;28;20045;-79
2022/03/14 05:43:46;;;;;;;0.00;0.00;;;10.00;93.80;;;;;;5072229;28;20040;-78
2022/03/14 05:46:12;;;;;;;0.00;0.00;;;9.90;94.30;;;;;;5055656;28;20056;-79
2022/03/14 05:48:37;;;;;;;0.20;0.20;;;9.90;94.40;;;;;;5072209;28;20043;-78
2022/03/14 05:51:04;;;;;;;0.00;0.00;;;9.90;95.00;;;;;;5055478;28;20182;-78
2022/03/14 05:53:31;;;;;;;0.00;0.00;;;9.80;95.50;;;;;;5072037;28;20052;-78
2022/03/14 05:55:58;;;;;;;0.00;0.00;;;9.90;96.10;;;;;;5055302;28;20523;-78
2022/03/14 05:58:24;;;;;;;0.00;0.00;;;9.80;95.80;;;;;;5072021;28;20089;-78
2022/03/14 06:00:52;;;;;;;0.25;0.20;;;9.80;97.00;;;;;;5071585;28;20403;-78
2022/03/14 06:03:20;;;;;;;0.10;0.10;;;9.70;96.70;;;;;;5071731;28;20067;-79
2022/03/14 06:05:50;;;;;;;0.00;0.00;;;9.70;97.80;;;;;;5071632;28;20106;-79
2022/03/14 06:08:16;;;;;;;0.00;0.00;;;9.60;98.10;;;;;;5055078;28;20056;-79
2022/03/14 06:10:44;;;;;;;0.00;0.00;;;9.60;98.50;;;;;;5055182;28;20060;-79
2022/03/14 06:13:09;;;;;;;0.00;0.00;;;9.60;98.40;;;;;;5071611;28;20099;-78
2022/03/14 06:15:36;;;;;;;0.00;0.00;;;9.50;98.80;;;;;;5072173;28;20080;-78
2022/03/14 06:18:01;;;;;;;0.57;0.00;;;9.50;99.70;;;;;;5075146;28;20400;-79
2022/03/14 06:20:27;;;;;;;0.10;0.00;;;9.50;99.90;;;;;;5075555;28;20040;-79
2022/03/14 06:22:53;;;;;;;0.00;0.00;;;9.50;99.90;;;;;;5075502;28;20036;-79
2022/03/14 06:25:18;;;;;;;0.00;0.00;;;9.50;99.90;;;;;;5075510;28;20041;-79
2022/03/14 06:27:44;;;;;;;0.00;0.00;;;9.50;99.90;;;;;;5058702;28;20093;-79
2022/03/14 06:30:11;;;;;;;0.00;0.00;;;9.50;99.90;;;;;;5075162;28;20048;-80
2022/03/14 06:32:38;;;;;;;0.00;0.00;;;9.50;99.90;;;;;;5075260;28;20052;-79
2022/03/14 06:35:06;;;;;;;0.00;0.00;;;9.40;99.90;;;;;;5058171;28;20400;-80
2022/03/14 06:37:32;;;;;;;0.00;0.00;;;9.40;99.90;;;;;;5075237;28;20512;-79
2022/03/14 06:39:58;;;;;;;0.00;0.00;;;9.40;99.90;;;;;;5075494;28;20083;-79
2022/03/14 06:42:23;;;;;;;0.68;0.10;;;9.40;99.90;;;;;;5074982;28;20128;-80
2022/03/14 06:44:50;;;;;;;0.00;0.00;;;9.40;99.90;;;;;;5075168;28;20036;-80
2022/03/14 06:47:19;;;;;;;0.38;0.38;;;9.40;99.90;;;;;;5058503;28;20067;-79
2022/03/14 06:49:45;;;;;;;0.00;0.00;;;9.40;99.90;;;;;;5073034;28;20048;-80
2022/03/14 06:52:15;;;;;;;0.80;0.10;;;9.40;99.90;;;;;;5070516;28;20056;-82
2022/03/14 06:54:41;;;;;;;0.00;0.00;;;9.40;99.90;;;;;;5056530;28;20537;-82
2022/03/14 06:57:08;;;;;;;0.05;0.05;;;9.30;99.90;;;;;;5073266;28;20496;-81
2022/03/14 06:59:34;;;;;;;0.13;0.03;;;9.40;99.90;;;;;;5056497;28;20095;-81
2022/03/14 07:02:00;;;;;;;0.00;0.00;;;9.40;99.90;;;;;;5055748;28;20037;-80
2022/03/14 07:04:27;;;;;;;0.00;0.00;;;9.40;99.90;;;;;;5056805;28;20524;-80
2022/03/14 07:06:53;;;;;;;0.00;0.00;;;9.30;99.90;;;;;;5073240;28;20048;-81
2022/03/14 07:09:19;;;;;;;0.52;0.20;;;9.30;99.90;;;;;;5072533;28;20535;-81
2022/03/14 07:11:45;;;;;;;0.00;0.00;;;9.30;99.90;;;;;;5072383;28;20044;-80
2022/03/14 07:14:11;;;;;;;0.00;0.00;;;9.40;99.90;;;;;;5055432;28;20135;-80
2022/03/14 07:16:36;;;;;;;0.00;0.00;;;9.30;99.90;;;;;;5072764;28;20450;-80
2022/03/14 07:19:02;;;;;;;0.00;0.00;;;9.30;99.90;;;;;;5056059;28;20480;-82
2022/03/14 07:21:28;;;;;;;0.75;0.20;;;9.30;99.90;;;;;;5055525;28;20067;-84
2022/03/14 07:23:57;;;;;;;0.10;0.10;;;9.30;99.90;;;;;;5071634;28;20492;-82
2022/03/14 07:26:24;;;;;;;0.00;0.00;;;9.30;99.90;;;;;;5072596;28;20131;-81
2022/03/14 07:28:50;;;;;;;0.00;0.00;;;9.30;99.90;;;;;;5072149;28;20084;-81
2022/03/14 07:31:18;;;;;;;0.00;0.00;;;9.30;99.90;;;;;;5055185;28;20056;-82
2022/03/14 07:33:43;;;;;;;0.00;0.00;;;9.30;99.90;;;;;;5056046;28;20099;-83
2022/03/14 07:36:12;;;;;;;1.00;0.65;;;9.30;99.90;;;;;;5072034;28;20084;-84
2022/03/14 07:38:38;;;;;;;0.00;0.00;;;9.30;99.90;;;;;;5071519;28;20060;-84
2022/03/14 07:41:04;;;;;;;0.00;0.00;;;9.30;99.90;;;;;;5055010;28;20093;-81
2022/03/14 07:43:33;;;;;;;0.00;0.00;;;9.30;99.90;;;;;;5072069;28;20044;-80
2022/03/14 07:45:58;;;;;;;0.00;0.00;;;9.30;99.90;;;;;;5055157;28;20514;-80
2022/03/14 07:48:24;;;;;;;0.10;0.00;;;9.30;99.90;;;;;;5072365;28;20127;-80
2022/03/14 07:50:52;;;;;;;2.05;0.20;;;9.30;99.90;;;;;;5071537;28;20484;-79
2022/03/14 07:53:17;;;;;;;0.00;0.00;;;9.30;99.90;;;;;;5043499;28;20061;-80
2022/03/14 07:55:43;;;;;;;0.40;0.00;;;9.50;99.90;;;;;;5052493;28;20109;-79
2022/03/14 07:58:09;;;;;;;0.00;0.00;;;9.40;99.90;;;;;;5051626;28;20488;-79
2022/03/14 08:00:34;;;;;;;0.20;0.13;;;9.40;99.90;;;;;;5051177;28;20377;-81
2022/03/14 08:03:00;;;;;;;0.30;0.13;;;9.40;99.90;;;;;;5035121;28;20037;-79
2022/03/14 08:05:26;;;;;;;0.00;0.00;;;9.40;99.90;;;;;;5054454;28;20044;-79
2022/03/14 08:07:54;;;;;;;0.00;0.00;;;9.40;99.90;;;;;;5072074;28;20503;-79
2022/03/14 08:10:20;;;;;;;0.17;0.00;;;9.40;99.90;;;;;;5044875;28;20068;-80
2022/03/14 08:12:49;;;;;;;0.00;0.00;;;9.40;99.90;;;;;;5060403;28;20472;-81
2022/03/14 08:15:29;;;;;;;0.03;0.03;;;9.50;99.90;;;;;;5043717;28;20135;-81
2022/03/14 08:18:01;;;;;;;0.38;0.10;;;9.50;99.90;;;;;;5036993;28;20052;-80
2022/03/14 08:20:27;;;;;;;0.00;0.00;;;9.50;99.90;;;;;;5053426;28;20098;-81
2022/03/14 08:22:55;;;;;;;0.00;0.00;;;9.50;99.90;;;;;;5036679;28;20044;-80
2022/03/14 08:25:21;;;;;;;0.30;0.17;;;9.60;99.90;;;;;;5053213;28;20037;-81
2022/03/14 08:27:48;;;;;;;0.10;0.00;;;9.60;99.90;;;;;;5053201;28;20041;-80
2022/03/14 08:30:14;;;;;;;0.00;0.00;;;9.60;99.90;;;;;;5036927;28;20060;-80
2022/03/14 08:32:40;;;;;;;0.10;0.10;;;9.60;99.90;;;;;;5053152;28;20049;-80
2022/03/14 08:35:08;;;;;;;0.57;0.57;;;9.60;99.90;;;;;;5052856;28;20515;-81
2022/03/14 08:37:45;;;;;;;0.28;0.28;;;9.70;99.90;;;;;;5052988;28;20059;-80
2022/03/14 08:40:13;;;;;;;0.00;0.00;;;9.70;99.90;;;;;;5036540;28;20053;-80
2022/03/14 08:42:40;;;;;;;0.88;0.38;;;9.60;99.90;;;;;;5036221;28;20136;-80
2022/03/14 08:45:08;;;;;;;0.00;0.00;;;9.60;99.90;;;;;;5052967;28;20059;-81
2022/03/14 08:47:34;;;;;;;0.08;0.00;;;9.60;99.90;;;;;;5052791;28;20091;-80
2022/03/14 08:50:02;;;;;;;0.05;0.05;;;9.60;99.90;;;;;;5036487;28;20250;-81
2022/03/14 08:52:28;;;;;;;0.20;0.10;;;9.60;99.90;;;;;;5052885;28;20064;-80
2022/03/14 08:54:54;;;;;;;0.10;0.05;;;9.60;99.90;;;;;;5035935;28;20569;-81
2022/03/14 08:57:20;;;;;;;0.00;0.00;;;9.50;99.90;;;;;;5052441;28;20140;-80
2022/03/14 08:59:46;;;;;;;0.00;0.00;;;9.60;99.90;;;;;;5052744;28;20134;-80
2022/03/14 09:02:11;;;;;;;0.00;0.00;;;9.50;99.90;;;;;;5035757;28;20134;-80
2022/03/14 09:04:38;;;;;;;0.20;0.20;;;9.50;99.90;;;;;;5052253;28;20056;-80
2022/03/14 09:07:05;;;;;;;0.10;0.10;;;9.50;99.90;;;;;;5052668;28;20041;-80
2022/03/14 09:09:31;;;;;;;0.00;0.00;;;9.40;99.90;;;;;;5052522;28;20366;-81
2022/03/14 09:11:58;;;;;;;0.30;0.10;;;9.40;99.90;;;;;;5052654;28;20044;-81
2022/03/14 09:14:24;;;;;;;0.15;0.00;;;9.40;99.90;;;;;;5035248;28;20096;-81
2022/03/14 09:16:51;;;;;;;0.43;0.30;;;9.40;99.90;;;;;;5035927;28;20088;-81
2022/03/14 09:19:17;;;;;;;0.80;0.25;;;9.30;99.90;;;;;;5052533;28;20476;-81
2022/03/14 09:21:43;;;;;;;0.20;0.00;;;9.30;99.90;;;;;;5036324;28;20098;-81
2022/03/14 09:24:08;;;;;;;0.10;0.10;;;9.30;99.90;;;;;;5036245;28;20118;-80
2022/03/14 09:26:36;;;;;;;0.00;0.00;;;9.30;99.90;;;;;;5036282;28;20057;-81
2022/03/14 09:29:03;;;;;;;0.00;0.00;;;9.30;99.90;;;;;;5036178;28;20053;-80
2022/03/14 09:31:29;;;;;;;0.55;0.20;;;9.30;99.90;;;;;;5036278;28;20061;-80
2022/03/14 09:33:55;;;;;;;1.45;1.00;;;9.30;99.90;;;;;;5052479;28;20056;-81
2022/03/14 09:36:20;;;;;;;0.00;0.00;;;9.40;99.90;;;;;;5052422;28;20045;-81
2022/03/14 09:38:46;;;;;;;0.00;0.00;;;9.30;99.90;;;;;;5035582;28;20049;-81
2022/03/14 09:41:18;;;;;;;0.00;0.00;;;9.30;99.90;;;;;;5035607;28;20056;-81
2022/03/14 09:43:46;;;;;;;0.10;0.10;;;9.30;99.90;;;;;;5052198;28;20048;-83
2022/03/14 09:46:12;;;;;;;1.20;0.10;;;9.30;99.90;;;;;;5040229;28;20060;-84
2022/03/14 09:48:43;;;;;;;0.28;0.10;;;9.40;99.90;;;;;;5062916;28;20412;-81
2022/03/14 09:51:09;;;;;;;0.00;0.00;;;9.30;99.90;;;;;;5047995;28;20048;-81
2022/03/14 09:53:36;;;;;;;0.25;0.25;;;9.30;99.90;;;;;;5058375;28;20045;-80
2022/03/14 09:56:02;;;;;;;0.00;0.00;;;9.40;99.90;;;;;;5058434;28;20087;-80
2022/03/14 09:58:28;;;;;;;0.00;0.00;;;9.40;99.90;;;;;;5064373;28;20073;-80
2022/03/14 10:00:54;;;;;;;4.07;1.10;;;9.40;99.90;;;;;;5056076;28;20099;-80
2022/03/14 10:03:21;;;;;;;0.05;0.00;;;9.40;99.90;;;;;;5039240;28;20049;-79
2022/03/14 10:05:47;;;;;;;0.00;0.00;;;9.40;99.90;;;;;;5070824;28;20084;-79
2022/03/14 10:08:14;;;;;;;0.05;0.05;;;9.50;99.90;;;;;;5060850;28;20068;-80
2022/03/14 10:10:40;;;;;;;0.00;0.00;;;9.50;99.90;;;;;;5072866;28;20430;-81
2022/03/14 10:13:07;;;;;;;0.10;0.10;;;9.50;99.90;;;;;;5063214;28;20080;-80
2022/03/14 10:15:40;;;;;;;0.10;0.00;;;9.50;99.90;;;;;;5038172;28;20056;-80
2022/03/14 10:18:18;;;;;;;0.10;0.10;;;9.50;99.90;;;;;;5038395;28;20049;-81
2022/03/14 10:20:58;;;;;;;0.00;0.00;;;9.50;99.90;;;;;;5055197;28;20548;-80
2022/03/14 10:23:36;;;;;;;0.00;0.00;;;9.60;99.90;;;;;;5054576;28;20048;-81
2022/03/14 10:26:06;;;;;;;0.00;0.00;;;9.60;99.90;;;;;;5072581;28;20401;-80
2022/03/14 10:28:35;;;;;;;0.20;0.00;;;9.60;99.90;;;;;;5058349;28;20052;-80
2022/03/14 10:31:02;;;;;;;0.13;0.05;;;9.70;99.90;;;;;;5069721;28;20052;-80
2022/03/14 10:33:32;;;;;;;0.28;0.00;;;9.70;99.90;;;;;;5054801;28;20080;-81
2022/03/14 10:35:59;;;;;;;0.00;0.00;;;9.70;99.90;;;;;;5062355;28;20562;-80
2022/03/14 10:38:26;;;;;;;1.35;0.85;;;9.70;99.90;;;;;;5074740;28;20488;-81
2022/03/14 10:40:53;;;;;;;0.05;0.05;;;9.80;99.90;;;;;;5058155;28;20091;-80
2022/03/14 10:43:38;;;;;;;0.00;0.00;;;9.80;99.90;;;;;;5073953;28;20420;-80
2022/03/14 10:46:04;;;;;;;0.05;0.05;;;9.80;99.90;;;;;;5074576;28;20123;-79
2022/03/14 10:48:44;;;;;;;0.10;0.10;;;9.80;99.90;;;;;;5074736;28;20388;-79
2022/03/14 10:51:18;;;;;;;0.20;0.20;;;9.80;99.90;;;;;;5074797;28;20083;-80
2022/03/14 10:53:48;;;;;;;0.03;0.00;;;9.80;99.90;;;;;;5041663;28;20045;-79
2022/03/14 10:56:16;;;;;;;0.00;0.00;;;9.80;99.90;;;;;;5054533;28;20056;-80
2022/03/14 10:58:43;;;;;;;0.00;0.00;;;9.90;99.90;;;;;;5037586;28;20401;-79
2022/03/14 11:01:10;;;;;;;0.10;0.10;;;9.90;99.90;;;;;;5037689;28;20053;-79
2022/03/14 11:03:41;;;;;;;0.00;0.00;;;9.90;99.90;;;;;;5053332;28;20440;-79
2022/03/14 11:06:15;;;;;;;0.00;0.00;;;10.00;99.90;;;;;;5054748;28;20475;-79
2022/03/14 11:08:47;;;;;;;0.00;0.00;;;10.00;99.90;;;;;;5054501;28;20396;-80
2022/03/14 11:11:15;;;;;;;0.65;0.32;;;10.10;99.90;;;;;;5054457;28;20315;-80
2022/03/14 11:13:42;;;;;;;0.00;0.00;;;10.10;99.90;;;;;;5038057;28;20049;-80
2022/03/14 11:16:29;;;;;;;0.00;0.00;;;10.20;99.90;;;;;;5037870;28;20049;-80
2022/03/14 11:18:56;;;;;;;0.00;0.00;;;10.20;99.90;;;;;;5038131;28;20053;-80
2022/03/14 11:21:26;;;;;;;0.00;0.00;;;10.30;99.90;;;;;;5037834;28;20057;-80
2022/03/14 11:23:53;;;;;;;0.00;0.00;;;10.40;99.90;;;;;;5037617;28;20512;-80
2022/03/14 11:26:24;;;;;;;0.00;0.00;;;10.40;99.90;;;;;;5054138;28;20507;-80
2022/03/14 11:28:51;;;;;;;1.23;0.30;;;10.40;99.90;;;;;;5038002;28;20057;-80
2022/03/14 11:31:21;;;;;;;0.38;0.38;;;10.60;99.90;;;;;;5054653;28;20104;-79
2022/03/14 11:33:48;;;;;;;0.03;0.03;;;10.50;99.90;;;;;;5054266;28;20041;-80
2022/03/14 11:36:18;;;;;;;0.00;0.00;;;10.60;99.90;;;;;;5037362;28;20065;-80
2022/03/14 11:38:44;;;;;;;0.10;0.10;;;10.60;99.90;;;;;;5038346;28;20389;-80
2022/03/14 11:41:10;;;;;;;0.13;0.03;;;10.60;99.90;;;;;;5054621;28;20049;-80
2022/03/14 11:43:39;;;;;;;0.00;0.00;;;10.60;99.90;;;;;;5053767;28;20390;-80
2022/03/14 11:46:05;;;;;;;0.00;0.00;;;10.60;99.90;;;;;;5053974;28;20131;-80
2022/03/14 11:48:33;;;;;;;0.47;0.10;;;10.60;99.90;;;;;;5053866;28;20087;-80
2022/03/14 11:51:02;;;;;;;0.08;0.08;;;10.60;99.90;;;;;;5053833;28;20132;-80
2022/03/14 11:53:33;;;;;;;0.38;0.10;;;10.70;99.90;;;;;;5037135;28;20115;-80
2022/03/14 11:56:05;;;;;;;1.85;0.70;;;10.80;99.90;;;;;;5036324;28;20470;-82
2022/03/14 11:58:38;;;;;;;2.88;0.85;;;10.90;99.90;;;;;;5052198;28;20056;-82
2022/03/14 12:01:23;;;;;;;2.08;0.32;;;11.00;99.90;;;;;;5036954;28;20057;-82
2022/03/14 12:03:52;;;;;;;0.00;0.00;;;11.00;99.90;;;;;;5054161;28;20053;-80
2022/03/14 12:06:47;;;;;;;0.00;0.00;;;11.20;99.90;;;;;;5072670;28;20378;-81
2022/03/14 12:09:25;;;;;;;0.10;0.10;;;11.40;99.90;;;;;;5073455;28;20083;-80
2022/03/14 12:12:16;;;;;;;1.00;0.20;;;11.60;99.90;;;;;;5072937;28;20092;-80
2022/03/14 12:14:47;;;;;;;0.15;0.00;;;11.80;99.90;;;;;;5038399;28;20139;-80
2022/03/14 12:17:13;;;;;;;0.00;0.00;;;11.90;99.90;;;;;;5055857;28;20488;-80
2022/03/14 12:19:44;;;;;;;0.05;0.03;;;12.00;99.90;;;;;;5055656;28;20051;-80
2022/03/14 12:22:29;;;;;;;0.45;0.40;;;12.20;99.90;;;;;;5038625;28;20485;-80
2022/03/14 12:24:56;;;;;;;0.10;0.00;;;12.30;99.90;;;;;;5055952;28;20102;-80
2022/03/14 12:27:30;;;;;;;0.00;0.00;;;12.20;99.90;;;;;;5055467;28;20057;-79
2022/03/14 12:29:58;;;;;;;0.20;0.20;;;12.30;99.90;;;;;;5055573;28;20145;-79
2022/03/14 12:32:27;;;;;;;3.10;1.10;;;12.30;99.90;;;;;;5038690;28;20198;-79
2022/03/14 12:34:59;;;;;;;0.55;0.20;;;12.30;99.90;;;;;;5055264;28;20064;-80
2022/03/14 12:37:42;;;;;;;0.63;0.10;;;12.30;99.90;;;;;;5055289;28;20114;-80
2022/03/14 12:40:21;;;;;;;2.50;0.25;;;12.20;99.90;;;;;;5038885;28;20045;-80
2022/03/14 12:42:52;;;;;;;0.57;0.38;;;12.20;99.90;;;;;;5055075;28;20041;-80
2022/03/14 12:45:24;;;;;;;0.17;0.10;;;12.20;99.90;;;;;;5054805;28;20056;-80
2022/03/14 12:48:12;;;;;;;1.35;0.50;;;12.20;99.90;;;;;;5038719;28;20048;-80
2022/03/14 12:50:53;;;;;;;1.17;0.85;;;12.20;99.90;;;;;;5055564;28;20048;-79
2022/03/14 12:53:28;;;;;;;0.20;0.20;;;12.30;99.90;;;;;;5072693;28;20067;-79